sensor_id;sensor_type;location;lat;lon;timestamp;temperature;humidity
73939;DHT22;62291;47.554;8.504;2023-09-19T00:02:19;17.50;99.90
73939;DHT22;62291;47.554;8.504;2023-09-19T00:04:45;17.50;99.90
73939;DHT22;62291;47.554;8.504;2023-09-19T00:07:10;17.50;99.90
73939;DHT22;62291;47.554;8.504;2023-09-19T00:09:36;17.50;99.90
73939;DHT22;62291;47.554;8.504;2023-09-19T00:12:06;17.50;99.90
73939;DHT22;62291;47.554;8.504;2023-09-19T00:14:35;17.50;99.90
73939;DHT22;62291;47.554;8.504;2023-09-19T00:17:02;17.50;99.90
73939;DHT22;62291;47.554;8.504;2023-09-19T00:19:36;17.50;99.90
73939;DHT22;62291;47.554;8.504;2023-09-19T00:22:03;17.50;99.90
73939;DHT22;62291;47.554;8.504;2023-09-19T00:24:29;17.50;99.90
73939;DHT22;62291;47.554;8.504;2023-09-19T00:26:56;17.50;99.90
73939;DHT22;62291;47.554;8.504;2023-09-19T00:29:25;17.50;99.90
73939;DHT22;62291;47.554;8.504;2023-09-19T00:31:55;17.40;99.90
73939;DHT22;62291;47.554;8.504;2023-09-19T00:34:22;17.30;99.90
73939;DHT22;62291;47.554;8.504;2023-09-19T00:36:48;17.30;99.90
73939;DHT22;62291;47.554;8.504;2023-09-19T00:39:14;17.30;99.90
73939;DHT22;62291;47.554;8.504;2023-09-19T00:41:39;17.30;99.90
73939;DHT22;62291;47.554;8.504;2023-09-19T00:44:06;17.30;99.90
73939;DHT22;62291;47.554;8.504;2023-09-19T00:46:32;17.30;99.90
73939;DHT22;62291;47.554;8.504;2023-09-19T00:48:58;17.30;99.90
73939;DHT22;62291;47.554;8.504;2023-09-19T00:51:25;17.30;99.90
73939;DHT22;62291;47.554;8.504;2023-09-19T00:53:53;17.30;99.90
73939;DHT22;62291;47.554;8.504;2023-09-19T00:56:19;17.30;99.90
73939;DHT22;62291;47.554;8.504;2023-09-19T00:58:46;17.30;99.90
73939;DHT22;62291;47.554;8.504;2023-09-19T01:01:13;17.30;99.90
73939;DHT22;62291;47.554;8.504;2023-09-19T01:03:41;17.30;99.90
73939;DHT22;62291;47.554;8.504;2023-09-19T01:06:07;17.30;99.90
73939;DHT22;62291;47.554;8.504;2023-09-19T01:08:34;17.30;99.90
73939;DHT22;62291;47.554;8.504;2023-09-19T01:11:07;17.30;99.90
73939;DHT22;62291;47.554;8.504;2023-09-19T01:16:36;17.30;99.90
73939;DHT22;62291;47.554;8.504;2023-09-19T01:22:13;17.30;99.90
73939;DHT22;62291;47.554;8.504;2023-09-19T02:17:27;17.10;99.90
73939;DHT22;62291;47.554;8.504;2023-09-19T02:19:55;17.20;99.90
73939;DHT22;62291;47.554;8.504;2023-09-19T02:22:22;17.20;99.90
73939;DHT22;62291;47.554;8.504;2023-09-19T02:24:48;17.20;99.90
73939;DHT22;62291;47.554;8.504;2023-09-19T02:27:14;17.30;99.90
73939;DHT22;62291;47.554;8.504;2023-09-19T02:29:42;17.30;99.90
73939;DHT22;62291;47.554;8.504;2023-09-19T02:32:07;17.30;99.90
73939;DHT22;62291;47.554;8.504;2023-09-19T02:34:35;17.30;99.90
73939;DHT22;62291;47.554;8.504;2023-09-19T02:37:03;17.20;99.90
73939;DHT22;62291;47.554;8.504;2023-09-19T02:39:33;17.20;99.90
73939;DHT22;62291;47.554;8.504;2023-09-19T02:41:59;17.20;99.90
73939;DHT22;62291;47.554;8.504;2023-09-19T02:44:25;17.20;99.90
73939;DHT22;62291;47.554;8.504;2023-09-19T02:46:51;17.20;99.90
73939;DHT22;62291;47.554;8.504;2023-09-19T02:49:17;17.20;99.90
73939;DHT22;62291;47.554;8.504;2023-09-19T02:51:45;17.20;99.90
73939;DHT22;62291;47.554;8.504;2023-09-19T02:54:13;17.20;99.90
73939;DHT22;62291;47.554;8.504;2023-09-19T02:56:39;17.20;99.90
73939;DHT22;62291;47.554;8.504;2023-09-19T02:59:05;17.20;99.90
73939;DHT22;62291;47.554;8.504;2023-09-19T03:01:31;17.20;99.90
73939;DHT22;62291;47.554;8.504;2023-09-19T03:03:57;17.10;99.90
73939;DHT22;62291;47.554;8.504;2023-09-19T03:06:23;17.00;99.90
73939;DHT22;62291;47.554;8.504;2023-09-19T03:08:49;17.00;99.90
73939;DHT22;62291;47.554;8.504;2023-09-19T03:11:17;17.00;99.90
73939;DHT22;62291;47.554;8.504;2023-09-19T03:13:51;17.00;99.90
73939;DHT22;62291;47.554;8.504;2023-09-19T03:16:16;17.00;99.90
73939;DHT22;62291;47.554;8.504;2023-09-19T03:18:42;16.90;99.90
73939;DHT22;62291;47.554;8.504;2023-09-19T03:21:08;17.00;99.90
73939;DHT22;62291;47.554;8.504;2023-09-19T03:23:34;17.00;99.90
73939;DHT22;62291;47.554;8.504;2023-09-19T03:26:00;17.00;99.90
73939;DHT22;62291;47.554;8.504;2023-09-19T03:28:26;17.10;99.90
73939;DHT22;62291;47.554;8.504;2023-09-19T03:31:02;17.10;99.90
73939;DHT22;62291;47.554;8.504;2023-09-19T03:33:29;17.10;99.90
73939;DHT22;62291;47.554;8.504;2023-09-19T03:35:57;17.20;99.90
73939;DHT22;62291;47.554;8.504;2023-09-19T03:38:25;17.10;99.90
73939;DHT22;62291;47.554;8.504;2023-09-19T03:40:51;17.20;99.90
73939;DHT22;62291;47.554;8.504;2023-09-19T03:43:16;17.20;99.90
73939;DHT22;62291;47.554;8.504;2023-09-19T03:45:43;17.20;99.90
73939;DHT22;62291;47.554;8.504;2023-09-19T03:48:11;17.20;99.90
73939;DHT22;62291;47.554;8.504;2023-09-19T03:50:37;17.10;99.90
73939;DHT22;62291;47.554;8.504;2023-09-19T03:53:03;17.10;99.90
73939;DHT22;62291;47.554;8.504;2023-09-19T03:55:29;17.20;99.90
73939;DHT22;62291;47.554;8.504;2023-09-19T03:57:58;17.10;99.90
73939;DHT22;62291;47.554;8.504;2023-09-19T04:00:24;17.10;99.90
73939;DHT22;62291;47.554;8.504;2023-09-19T04:02:52;17.10;99.90
73939;DHT22;62291;47.554;8.504;2023-09-19T04:05:18;17.10;99.90
73939;DHT22;62291;47.554;8.504;2023-09-19T04:07:44;17.10;99.90
73939;DHT22;62291;47.554;8.504;2023-09-19T04:10:10;17.10;99.90
73939;DHT22;62291;47.554;8.504;2023-09-19T04:12:40;17.10;99.90
73939;DHT22;62291;47.554;8.504;2023-09-19T04:15:06;17.10;99.90
73939;DHT22;62291;47.554;8.504;2023-09-19T04:17:32;17.10;99.90
73939;DHT22;62291;47.554;8.504;2023-09-19T04:20:01;17.10;99.90
73939;DHT22;62291;47.554;8.504;2023-09-19T04:22:27;17.20;99.90
73939;DHT22;62291;47.554;8.504;2023-09-19T04:24:52;17.20;99.90
73939;DHT22;62291;47.554;8.504;2023-09-19T04:27:18;17.20;99.90
73939;DHT22;62291;47.554;8.504;2023-09-19T04:29:44;17.10;99.90
73939;DHT22;62291;47.554;8.504;2023-09-19T04:32:10;17.10;99.90
73939;DHT22;62291;47.554;8.504;2023-09-19T04:34:36;17.10;99.90
73939;DHT22;62291;47.554;8.504;2023-09-19T04:37:04;17.10;99.90
73939;DHT22;62291;47.554;8.504;2023-09-19T04:39:29;17.10;99.90
73939;DHT22;62291;47.554;8.504;2023-09-19T04:41:55;17.10;99.90
73939;DHT22;62291;47.554;8.504;2023-09-19T04:44:22;17.10;99.90
73939;DHT22;62291;47.554;8.504;2023-09-19T04:46:48;17.10;99.90
73939;DHT22;62291;47.554;8.504;2023-09-19T04:49:13;17.10;99.90
73939;DHT22;62291;47.554;8.504;2023-09-19T04:51:39;17.20;99.90
73939;DHT22;62291;47.554;8.504;2023-09-19T04:54:06;17.20;99.90
73939;DHT22;62291;47.554;8.504;2023-09-19T04:56:32;17.20;99.90
73939;DHT22;62291;47.554;8.504;2023-09-19T04:58:59;17.20;99.90
73939;DHT22;62291;47.554;8.504;2023-09-19T05:01:26;17.20;99.90
73939;DHT22;62291;47.554;8.504;2023-09-19T05:03:52;17.20;99.90
73939;DHT22;62291;47.554;8.504;2023-09-19T05:06:22;17.20;99.90
73939;DHT22;62291;47.554;8.504;2023-09-19T05:08:48;17.10;99.90
73939;DHT22;62291;47.554;8.504;2023-09-19T05:11:17;17.10;99.90
73939;DHT22;62291;47.554;8.504;2023-09-19T05:13:43;17.10;99.90
73939;DHT22;62291;47.554;8.504;2023-09-19T05:16:09;17.10;99.90
73939;DHT22;62291;47.554;8.504;2023-09-19T05:18:35;17.10;99.90
73939;DHT22;62291;47.554;8.504;2023-09-19T05:21:05;17.10;99.90
73939;DHT22;62291;47.554;8.504;2023-09-19T05:23:31;17.10;99.90
73939;DHT22;62291;47.554;8.504;2023-09-19T05:25:57;17.10;99.90
73939;DHT22;62291;47.554;8.504;2023-09-19T05:28:25;17.10;99.90
73939;DHT22;62291;47.554;8.504;2023-09-19T05:30:52;17.10;99.90
73939;DHT22;62291;47.554;8.504;2023-09-19T05:33:19;17.10;99.90
73939;DHT22;62291;47.554;8.504;2023-09-19T05:35:45;17.10;99.90
73939;DHT22;62291;47.554;8.504;2023-09-19T05:38:12;17.10;99.90
73939;DHT22;62291;47.554;8.504;2023-09-19T05:40:39;17.20;99.90
73939;DHT22;62291;47.554;8.504;2023-09-19T05:43:08;17.20;99.90
73939;DHT22;62291;47.554;8.504;2023-09-19T05:45:34;17.20;99.90
73939;DHT22;62291;47.554;8.504;2023-09-19T05:48:13;17.30;99.90
73939;DHT22;62291;47.554;8.504;2023-09-19T05:50:39;17.30;99.90
73939;DHT22;62291;47.554;8.504;2023-09-19T05:53:05;17.60;99.90
73939;DHT22;62291;47.554;8.504;2023-09-19T05:55:34;17.80;99.90
73939;DHT22;62291;47.554;8.504;2023-09-19T05:58:01;17.80;99.90
73939;DHT22;62291;47.554;8.504;2023-09-19T06:00:29;17.70;99.90
73939;DHT22;62291;47.554;8.504;2023-09-19T06:02:58;17.70;99.90
73939;DHT22;62291;47.554;8.504;2023-09-19T06:05:26;17.90;99.90
73939;DHT22;62291;47.554;8.504;2023-09-19T06:07:53;18.60;99.90
73939;DHT22;62291;47.554;8.504;2023-09-19T06:10:19;19.70;99.90
73939;DHT22;62291;47.554;8.504;2023-09-19T06:12:47;20.60;99.90
73939;DHT22;62291;47.554;8.504;2023-09-19T06:15:14;21.30;99.90
73939;DHT22;62291;47.554;8.504;2023-09-19T06:17:48;21.90;99.90
73939;DHT22;62291;47.554;8.504;2023-09-19T06:20:14;22.50;99.90
73939;DHT22;62291;47.554;8.504;2023-09-19T06:22:41;22.90;99.90
73939;DHT22;62291;47.554;8.504;2023-09-19T06:25:08;23.10;99.90
73939;DHT22;62291;47.554;8.504;2023-09-19T06:27:38;23.00;99.90
73939;DHT22;62291;47.554;8.504;2023-09-19T06:30:05;23.40;99.90
73939;DHT22;62291;47.554;8.504;2023-09-19T06:32:32;23.60;99.90
73939;DHT22;62291;47.554;8.504;2023-09-19T06:34:57;23.80;99.90
73939;DHT22;62291;47.554;8.504;2023-09-19T06:37:29;23.80;99.90
73939;DHT22;62291;47.554;8.504;2023-09-19T06:39:55;24.00;99.90
73939;DHT22;62291;47.554;8.504;2023-09-19T06:42:22;24.60;99.90
73939;DHT22;62291;47.554;8.504;2023-09-19T06:44:49;24.90;99.90
73939;DHT22;62291;47.554;8.504;2023-09-19T06:47:14;24.60;99.90
73939;DHT22;62291;47.554;8.504;2023-09-19T06:49:41;24.30;99.90
73939;DHT22;62291;47.554;8.504;2023-09-19T06:52:10;23.90;99.90
73939;DHT22;62291;47.554;8.504;2023-09-19T06:54:35;23.30;99.90
73939;DHT22;62291;47.554;8.504;2023-09-19T06:57:01;23.30;99.90
73939;DHT22;62291;47.554;8.504;2023-09-19T06:59:27;23.20;99.90
73939;DHT22;62291;47.554;8.504;2023-09-19T07:01:53;23.10;99.90
73939;DHT22;62291;47.554;8.504;2023-09-19T07:04:19;23.30;99.90
73939;DHT22;62291;47.554;8.504;2023-09-19T07:06:49;23.30;99.90
73939;DHT22;62291;47.554;8.504;2023-09-19T07:09:18;23.60;99.90
73939;DHT22;62291;47.554;8.504;2023-09-19T07:11:47;23.70;99.90
73939;DHT22;62291;47.554;8.504;2023-09-19T07:14:16;23.90;99.90
73939;DHT22;62291;47.554;8.504;2023-09-19T07:16:42;24.70;99.90
73939;DHT22;62291;47.554;8.504;2023-09-19T07:19:10;25.20;99.90
73939;DHT22;62291;47.554;8.504;2023-09-19T07:21:36;26.00;99.90
73939;DHT22;62291;47.554;8.504;2023-09-19T07:24:03;26.20;99.90
73939;DHT22;62291;47.554;8.504;2023-09-19T07:26:29;26.50;99.90
73939;DHT22;62291;47.554;8.504;2023-09-19T07:28:55;27.30;99.90
73939;DHT22;62291;47.554;8.504;2023-09-19T07:31:22;28.00;99.20
73939;DHT22;62291;47.554;8.504;2023-09-19T07:33:49;28.50;97.20
73939;DHT22;62291;47.554;8.504;2023-09-19T07:36:14;27.90;97.20
73939;DHT22;62291;47.554;8.504;2023-09-19T07:38:41;26.70;97.90
73939;DHT22;62291;47.554;8.504;2023-09-19T07:41:08;26.10;98.90
73939;DHT22;62291;47.554;8.504;2023-09-19T07:43:36;25.60;99.90
73939;DHT22;62291;47.554;8.504;2023-09-19T07:46:07;25.00;99.90
73939;DHT22;62291;47.554;8.504;2023-09-19T07:48:35;24.90;99.90
73939;DHT22;62291;47.554;8.504;2023-09-19T07:51:05;25.40;99.90
73939;DHT22;62291;47.554;8.504;2023-09-19T07:53:32;25.80;99.60
73939;DHT22;62291;47.554;8.504;2023-09-19T07:56:07;25.70;99.90
73939;DHT22;62291;47.554;8.504;2023-09-19T07:58:34;25.70;99.90
73939;DHT22;62291;47.554;8.504;2023-09-19T08:01:05;25.30;99.30
73939;DHT22;62291;47.554;8.504;2023-09-19T08:03:32;24.50;99.90
73939;DHT22;62291;47.554;8.504;2023-09-19T08:05:58;24.20;99.90
73939;DHT22;62291;47.554;8.504;2023-09-19T08:08:24;23.70;99.90
73939;DHT22;62291;47.554;8.504;2023-09-19T08:10:56;23.40;99.90
73939;DHT22;62291;47.554;8.504;2023-09-19T08:13:25;23.70;99.90
73939;DHT22;62291;47.554;8.504;2023-09-19T08:15:52;23.40;99.90
73939;DHT22;62291;47.554;8.504;2023-09-19T08:18:20;23.50;99.90
73939;DHT22;62291;47.554;8.504;2023-09-19T08:20:52;24.50;99.90
73939;DHT22;62291;47.554;8.504;2023-09-19T08:23:18;25.20;99.90
73939;DHT22;62291;47.554;8.504;2023-09-19T08:25:46;26.30;99.90
73939;DHT22;62291;47.554;8.504;2023-09-19T08:28:11;26.30;98.60
73939;DHT22;62291;47.554;8.504;2023-09-19T08:30:39;26.60;98.80
73939;DHT22;62291;47.554;8.504;2023-09-19T08:33:06;26.80;98.00
73939;DHT22;62291;47.554;8.504;2023-09-19T08:35:33;26.90;98.10
73939;DHT22;62291;47.554;8.504;2023-09-19T08:37:59;26.70;97.30
73939;DHT22;62291;47.554;8.504;2023-09-19T08:40:30;26.40;98.40
73939;DHT22;62291;47.554;8.504;2023-09-19T08:42:59;26.40;98.40
73939;DHT22;62291;47.554;8.504;2023-09-19T08:45:26;25.50;99.50
73939;DHT22;62291;47.554;8.504;2023-09-19T08:48:00;25.20;98.80
73939;DHT22;62291;47.554;8.504;2023-09-19T08:50:29;24.70;99.70
73939;DHT22;62291;47.554;8.504;2023-09-19T08:53:02;24.40;99.90
73939;DHT22;62291;47.554;8.504;2023-09-19T08:55:34;24.10;99.90
73939;DHT22;62291;47.554;8.504;2023-09-19T08:58:02;23.70;99.90
73939;DHT22;62291;47.554;8.504;2023-09-19T09:00:29;23.50;99.90
73939;DHT22;62291;47.554;8.504;2023-09-19T09:02:56;23.00;99.90
73939;DHT22;62291;47.554;8.504;2023-09-19T09:05:24;22.90;99.90
73939;DHT22;62291;47.554;8.504;2023-09-19T09:07:50;22.70;99.90
73939;DHT22;62291;47.554;8.504;2023-09-19T09:10:22;22.70;99.90
73939;DHT22;62291;47.554;8.504;2023-09-19T09:12:52;22.70;99.90
73939;DHT22;62291;47.554;8.504;2023-09-19T09:15:21;22.50;99.90
73939;DHT22;62291;47.554;8.504;2023-09-19T09:17:50;22.30;99.90
73939;DHT22;62291;47.554;8.504;2023-09-19T09:20:17;22.10;99.90
73939;DHT22;62291;47.554;8.504;2023-09-19T09:22:54;22.10;99.90
73939;DHT22;62291;47.554;8.504;2023-09-19T09:25:21;22.00;99.90
73939;DHT22;62291;47.554;8.504;2023-09-19T09:28:01;22.00;99.90
73939;DHT22;62291;47.554;8.504;2023-09-19T09:30:37;21.80;99.90
73939;DHT22;62291;47.554;8.504;2023-09-19T09:33:12;21.90;99.90
73939;DHT22;62291;47.554;8.504;2023-09-19T09:35:59;21.70;99.90
73939;DHT22;62291;47.554;8.504;2023-09-19T09:38:27;21.70;99.90
73939;DHT22;62291;47.554;8.504;2023-09-19T09:40:55;21.50;99.90
73939;DHT22;62291;47.554;8.504;2023-09-19T09:43:39;21.30;99.90
73939;DHT22;62291;47.554;8.504;2023-09-19T09:49:02;21.20;99.90
73939;DHT22;62291;47.554;8.504;2023-09-19T09:52:03;21.30;99.90
73939;DHT22;62291;47.554;8.504;2023-09-19T09:54:34;21.50;99.90
73939;DHT22;62291;47.554;8.504;2023-09-19T09:57:07;21.50;99.90
73939;DHT22;62291;47.554;8.504;2023-09-19T09:59:53;21.60;99.90
73939;DHT22;62291;47.554;8.504;2023-09-19T10:02:30;21.50;99.90
73939;DHT22;62291;47.554;8.504;2023-09-19T10:07:50;21.30;99.90
73939;DHT22;62291;47.554;8.504;2023-09-19T10:10:37;21.40;99.90
73939;DHT22;62291;47.554;8.504;2023-09-19T10:13:19;21.40;99.90
73939;DHT22;62291;47.554;8.504;2023-09-19T10:15:49;21.70;99.90
73939;DHT22;62291;47.554;8.504;2023-09-19T10:18:21;21.70;99.90
73939;DHT22;62291;47.554;8.504;2023-09-19T10:20:47;21.70;99.90
73939;DHT22;62291;47.554;8.504;2023-09-19T10:23:17;21.50;99.90
73939;DHT22;62291;47.554;8.504;2023-09-19T10:25:48;21.50;99.90
73939;DHT22;62291;47.554;8.504;2023-09-19T10:28:16;21.60;99.90
73939;DHT22;62291;47.554;8.504;2023-09-19T10:30:49;21.70;99.90
73939;DHT22;62291;47.554;8.504;2023-09-19T10:33:20;21.60;99.90
73939;DHT22;62291;47.554;8.504;2023-09-19T10:35:50;21.60;99.90
73939;DHT22;62291;47.554;8.504;2023-09-19T10:38:24;21.60;99.90
73939;DHT22;62291;47.554;8.504;2023-09-19T10:40:54;21.70;99.90
73939;DHT22;62291;47.554;8.504;2023-09-19T10:43:21;21.70;99.90
73939;DHT22;62291;47.554;8.504;2023-09-19T10:45:50;21.90;99.90
73939;DHT22;62291;47.554;8.504;2023-09-19T10:48:19;22.00;99.90
73939;DHT22;62291;47.554;8.504;2023-09-19T10:51:09;22.20;99.90
73939;DHT22;62291;47.554;8.504;2023-09-19T10:54:05;22.60;99.90
73939;DHT22;62291;47.554;8.504;2023-09-19T10:56:37;23.10;99.90
73939;DHT22;62291;47.554;8.504;2023-09-19T10:59:16;23.40;99.90
73939;DHT22;62291;47.554;8.504;2023-09-19T11:01:47;23.70;99.90
73939;DHT22;62291;47.554;8.504;2023-09-19T11:07:01;23.80;99.90
73939;DHT22;62291;47.554;8.504;2023-09-19T11:15:02;25.10;99.90
73939;DHT22;62291;47.554;8.504;2023-09-19T11:30:32;24.50;99.90
73939;DHT22;62291;47.554;8.504;2023-09-19T11:33:21;24.40;99.90
73939;DHT22;62291;47.554;8.504;2023-09-19T11:36:08;24.20;99.90
73939;DHT22;62291;47.554;8.504;2023-09-19T11:49:26;22.90;99.90
73939;DHT22;62291;47.554;8.504;2023-09-19T11:51:56;23.20;99.90
73939;DHT22;62291;47.554;8.504;2023-09-19T11:54:23;23.10;99.90
73939;DHT22;62291;47.554;8.504;2023-09-19T11:56:51;23.10;99.90
73939;DHT22;62291;47.554;8.504;2023-09-19T11:59:29;23.30;99.90
73939;DHT22;62291;47.554;8.504;2023-09-19T12:02:01;23.50;99.90
73939;DHT22;62291;47.554;8.504;2023-09-19T12:04:39;23.90;99.90
73939;DHT22;62291;47.554;8.504;2023-09-19T12:07:08;24.00;99.90
73939;DHT22;62291;47.554;8.504;2023-09-19T12:09:41;24.30;99.90
73939;DHT22;62291;47.554;8.504;2023-09-19T12:12:28;24.70;99.90
73939;DHT22;62291;47.554;8.504;2023-09-19T12:14:56;24.80;99.20
73939;DHT22;62291;47.554;8.504;2023-09-19T12:17:38;24.90;99.10
73939;DHT22;62291;47.554;8.504;2023-09-19T12:20:05;25.10;99.90
73939;DHT22;62291;47.554;8.504;2023-09-19T12:22:46;25.00;99.90
73939;DHT22;62291;47.554;8.504;2023-09-19T12:25:13;24.80;99.90
73939;DHT22;62291;47.554;8.504;2023-09-19T12:27:45;24.90;99.90
73939;DHT22;62291;47.554;8.504;2023-09-19T12:30:15;24.90;99.90
73939;DHT22;62291;47.554;8.504;2023-09-19T12:32:44;24.90;98.80
73939;DHT22;62291;47.554;8.504;2023-09-19T12:35:10;24.90;99.80
73939;DHT22;62291;47.554;8.504;2023-09-19T12:37:44;25.00;98.90
73939;DHT22;62291;47.554;8.504;2023-09-19T12:40:21;24.90;99.90
73939;DHT22;62291;47.554;8.504;2023-09-19T12:42:57;24.90;99.90
73939;DHT22;62291;47.554;8.504;2023-09-19T12:45:28;25.10;99.90
73939;DHT22;62291;47.554;8.504;2023-09-19T12:53:36;25.20;98.90
73939;DHT22;62291;47.554;8.504;2023-09-19T12:56:06;25.20;99.50
73939;DHT22;62291;47.554;8.504;2023-09-19T12:58:34;25.30;99.60
73939;DHT22;62291;47.554;8.504;2023-09-19T13:01:00;25.30;99.10
73939;DHT22;62291;47.554;8.504;2023-09-19T13:03:28;25.30;98.00
73939;DHT22;62291;47.554;8.504;2023-09-19T13:06:01;25.20;98.30
73939;DHT22;62291;47.554;8.504;2023-09-19T13:08:28;25.10;99.00
73939;DHT22;62291;47.554;8.504;2023-09-19T13:11:14;25.00;99.70
73939;DHT22;62291;47.554;8.504;2023-09-19T13:16:33;25.10;99.40
73939;DHT22;62291;47.554;8.504;2023-09-19T13:18:59;25.50;99.30
73939;DHT22;62291;47.554;8.504;2023-09-19T13:21:30;25.50;98.10
73939;DHT22;62291;47.554;8.504;2023-09-19T13:24:24;25.10;99.30
73939;DHT22;62291;47.554;8.504;2023-09-19T13:26:56;25.00;98.10
73939;DHT22;62291;47.554;8.504;2023-09-19T13:29:22;24.90;98.30
73939;DHT22;62291;47.554;8.504;2023-09-19T13:31:51;24.90;99.80
73939;DHT22;62291;47.554;8.504;2023-09-19T13:34:20;25.00;97.90
73939;DHT22;62291;47.554;8.504;2023-09-19T13:36:47;24.90;98.10
73939;DHT22;62291;47.554;8.504;2023-09-19T13:39:16;24.80;99.20
73939;DHT22;62291;47.554;8.504;2023-09-19T13:41:49;24.70;97.70
73939;DHT22;62291;47.554;8.504;2023-09-19T13:44:15;24.60;97.20
73939;DHT22;62291;47.554;8.504;2023-09-19T13:46:42;24.70;98.00
73939;DHT22;62291;47.554;8.504;2023-09-19T13:49:11;24.70;98.00
73939;DHT22;62291;47.554;8.504;2023-09-19T13:51:37;24.90;97.70
73939;DHT22;62291;47.554;8.504;2023-09-19T13:54:02;25.00;97.50
73939;DHT22;62291;47.554;8.504;2023-09-19T13:56:28;25.20;97.80
73939;DHT22;62291;47.554;8.504;2023-09-19T13:58:55;25.20;97.70
73939;DHT22;62291;47.554;8.504;2023-09-19T14:01:21;25.40;96.90
73939;DHT22;62291;47.554;8.504;2023-09-19T14:03:47;25.10;96.10
73939;DHT22;62291;47.554;8.504;2023-09-19T14:06:15;24.90;96.20
73939;DHT22;62291;47.554;8.504;2023-09-19T14:08:41;24.80;98.20
73939;DHT22;62291;47.554;8.504;2023-09-19T14:11:08;24.70;97.50
73939;DHT22;62291;47.554;8.504;2023-09-19T14:13:34;24.70;97.80
73939;DHT22;62291;47.554;8.504;2023-09-19T14:16:03;24.70;97.20
73939;DHT22;62291;47.554;8.504;2023-09-19T14:18:30;24.60;97.30
73939;DHT22;62291;47.554;8.504;2023-09-19T14:20:56;24.30;96.70
73939;DHT22;62291;47.554;8.504;2023-09-19T14:23:22;24.00;97.00
73939;DHT22;62291;47.554;8.504;2023-09-19T14:25:50;23.80;99.00
73939;DHT22;62291;47.554;8.504;2023-09-19T14:28:15;23.70;98.60
73939;DHT22;62291;47.554;8.504;2023-09-19T14:30:41;23.60;99.30
73939;DHT22;62291;47.554;8.504;2023-09-19T14:33:07;23.50;99.90
73939;DHT22;62291;47.554;8.504;2023-09-19T14:35:33;23.40;99.90
73939;DHT22;62291;47.554;8.504;2023-09-19T14:37:58;23.10;99.80
73939;DHT22;62291;47.554;8.504;2023-09-19T14:40:24;23.10;99.90
73939;DHT22;62291;47.554;8.504;2023-09-19T14:42:51;23.00;99.90
73939;DHT22;62291;47.554;8.504;2023-09-19T14:45:16;23.00;99.90
73939;DHT22;62291;47.554;8.504;2023-09-19T14:47:46;22.90;99.90
73939;DHT22;62291;47.554;8.504;2023-09-19T14:50:12;22.80;99.90
73939;DHT22;62291;47.554;8.504;2023-09-19T14:52:38;22.90;99.90
73939;DHT22;62291;47.554;8.504;2023-09-19T14:55:06;22.90;99.90
73939;DHT22;62291;47.554;8.504;2023-09-19T14:57:33;22.90;99.90
73939;DHT22;62291;47.554;8.504;2023-09-19T14:59:59;23.00;99.90
73939;DHT22;62291;47.554;8.504;2023-09-19T15:02:25;23.00;99.90
73939;DHT22;62291;47.554;8.504;2023-09-19T15:04:52;23.00;99.90
73939;DHT22;62291;47.554;8.504;2023-09-19T15:07:18;22.90;99.90
73939;DHT22;62291;47.554;8.504;2023-09-19T15:09:44;22.80;99.90
73939;DHT22;62291;47.554;8.504;2023-09-19T15:12:10;22.80;99.90
73939;DHT22;62291;47.554;8.504;2023-09-19T15:14:40;22.80;99.90
73939;DHT22;62291;47.554;8.504;2023-09-19T15:17:07;22.80;99.90
73939;DHT22;62291;47.554;8.504;2023-09-19T15:19:33;22.80;99.90
73939;DHT22;62291;47.554;8.504;2023-09-19T15:21:59;22.70;99.90
73939;DHT22;62291;47.554;8.504;2023-09-19T15:24:25;22.80;99.90
73939;DHT22;62291;47.554;8.504;2023-09-19T15:26:52;22.80;99.90
73939;DHT22;62291;47.554;8.504;2023-09-19T15:29:18;22.90;99.90
73939;DHT22;62291;47.554;8.504;2023-09-19T15:31:45;22.90;99.90
73939;DHT22;62291;47.554;8.504;2023-09-19T15:34:11;22.90;99.70
73939;DHT22;62291;47.554;8.504;2023-09-19T15:36:39;22.90;99.90
73939;DHT22;62291;47.554;8.504;2023-09-19T15:39:07;22.90;99.90
73939;DHT22;62291;47.554;8.504;2023-09-19T15:41:37;22.80;99.80
73939;DHT22;62291;47.554;8.504;2023-09-19T15:44:04;22.80;99.90
73939;DHT22;62291;47.554;8.504;2023-09-19T15:46:33;22.80;99.90
73939;DHT22;62291;47.554;8.504;2023-09-19T15:49:00;22.90;99.90
73939;DHT22;62291;47.554;8.504;2023-09-19T15:51:27;22.90;99.90
73939;DHT22;62291;47.554;8.504;2023-09-19T15:53:54;22.90;99.90
73939;DHT22;62291;47.554;8.504;2023-09-19T15:56:21;22.90;99.90
73939;DHT22;62291;47.554;8.504;2023-09-19T15:58:49;22.80;99.90
73939;DHT22;62291;47.554;8.504;2023-09-19T16:01:15;22.80;99.90
73939;DHT22;62291;47.554;8.504;2023-09-19T16:03:49;22.70;99.90
73939;DHT22;62291;47.554;8.504;2023-09-19T16:06:17;22.60;99.90
73939;DHT22;62291;47.554;8.504;2023-09-19T16:08:45;22.60;99.90
73939;DHT22;62291;47.554;8.504;2023-09-19T16:11:11;22.60;99.90
73939;DHT22;62291;47.554;8.504;2023-09-19T16:13:37;22.50;99.90
73939;DHT22;62291;47.554;8.504;2023-09-19T16:16:04;22.50;99.90
73939;DHT22;62291;47.554;8.504;2023-09-19T16:18:30;22.40;99.90
73939;DHT22;62291;47.554;8.504;2023-09-19T16:21:02;22.30;99.90
73939;DHT22;62291;47.554;8.504;2023-09-19T16:23:29;22.20;99.90
73939;DHT22;62291;47.554;8.504;2023-09-19T16:26:05;22.20;99.90
73939;DHT22;62291;47.554;8.504;2023-09-19T16:28:31;22.10;99.90
73939;DHT22;62291;47.554;8.504;2023-09-19T16:30:58;22.00;99.90
73939;DHT22;62291;47.554;8.504;2023-09-19T16:33:25;21.80;99.90
73939;DHT22;62291;47.554;8.504;2023-09-19T16:35:51;21.70;99.90
73939;DHT22;62291;47.554;8.504;2023-09-19T16:38:18;21.50;99.90
73939;DHT22;62291;47.554;8.504;2023-09-19T16:40:55;21.40;99.90
73939;DHT22;62291;47.554;8.504;2023-09-19T16:43:23;21.30;99.90
73939;DHT22;62291;47.554;8.504;2023-09-19T16:45:57;21.20;99.90
73939;DHT22;62291;47.554;8.504;2023-09-19T16:48:24;21.10;99.90
73939;DHT22;62291;47.554;8.504;2023-09-19T16:50:52;21.10;99.90
73939;DHT22;62291;47.554;8.504;2023-09-19T16:53:18;21.10;99.90
73939;DHT22;62291;47.554;8.504;2023-09-19T16:55:45;21.10;99.90
73939;DHT22;62291;47.554;8.504;2023-09-19T16:58:15;21.00;99.90
73939;DHT22;62291;47.554;8.504;2023-09-19T17:00:41;21.00;99.90
73939;DHT22;62291;47.554;8.504;2023-09-19T17:03:14;21.00;99.90
73939;DHT22;62291;47.554;8.504;2023-09-19T17:05:39;20.90;99.90
73939;DHT22;62291;47.554;8.504;2023-09-19T17:08:09;20.80;99.90
73939;DHT22;62291;47.554;8.504;2023-09-19T17:10:35;20.70;99.90
73939;DHT22;62291;47.554;8.504;2023-09-19T17:13:04;20.60;99.90
73939;DHT22;62291;47.554;8.504;2023-09-19T17:15:33;20.50;99.90
73939;DHT22;62291;47.554;8.504;2023-09-19T17:17:59;20.30;99.90
73939;DHT22;62291;47.554;8.504;2023-09-19T17:20:28;20.20;99.90
73939;DHT22;62291;47.554;8.504;2023-09-19T17:22:54;20.10;99.90
73939;DHT22;62291;47.554;8.504;2023-09-19T17:25:21;20.00;99.90